sensor_id;sensor_type;location;lat;lon;timestamp;pressure;altitude;pressure_sealevel;temperature;humidity
73566;BME280;61846;52.970;-3.168;2023-05-25T00:02:09;101989.87;;;15.32;44.97
73566;BME280;61846;52.970;-3.168;2023-05-25T00:04:34;101989.40;;;15.26;45.44
73566;BME280;61846;52.970;-3.168;2023-05-25T00:07:00;101994.52;;;14.90;46.08
73566;BME280;61846;52.970;-3.168;2023-05-25T00:09:25;101995.59;;;15.02;45.77
73566;BME280;61846;52.970;-3.168;2023-05-25T00:11:51;101993.30;;;15.15;45.03
73566;BME280;61846;52.970;-3.168;2023-05-25T00:14:16;101990.92;;;15.35;44.54
73566;BME280;61846;52.970;-3.168;2023-05-25T00:16:42;101991.54;;;15.28;44.42
73566;BME280;61846;52.970;-3.168;2023-05-25T00:19:07;101992.98;;;15.12;44.36
73566;BME280;61846;52.970;-3.168;2023-05-25T00:21:33;101998.65;;;15.20;44.57
73566;BME280;61846;52.970;-3.168;2023-05-25T00:23:58;101995.67;;;15.50;43.97
73566;BME280;61846;52.970;-3.168;2023-05-25T00:26:24;101995.16;;;15.55;43.99
73566;BME280;61846;52.970;-3.168;2023-05-25T00:28:49;101994.36;;;15.34;44.12
73566;BME280;61846;52.970;-3.168;2023-05-25T00:31:15;102001.39;;;15.54;44.45
73566;BME280;61846;52.970;-3.168;2023-05-25T00:33:40;102001.14;;;15.35;44.56
73566;BME280;61846;52.970;-3.168;2023-05-25T00:36:06;101999.07;;;15.65;43.93
73566;BME280;61846;52.970;-3.168;2023-05-25T00:38:31;102000.60;;;14.48;45.51
73566;BME280;61846;52.970;-3.168;2023-05-25T00:40:57;101999.37;;;15.23;44.41
73566;BME280;61846;52.970;-3.168;2023-05-25T00:43:22;102000.22;;;16.11;43.33
73566;BME280;61846;52.970;-3.168;2023-05-25T00:45:48;102002.65;;;15.64;43.65
73566;BME280;61846;52.970;-3.168;2023-05-25T00:48:13;101999.33;;;16.00;43.68
73566;BME280;61846;52.970;-3.168;2023-05-25T00:50:40;102001.69;;;15.90;43.29
73566;BME280;61846;52.970;-3.168;2023-05-25T00:53:05;102006.73;;;14.95;44.63
73566;BME280;61846;52.970;-3.168;2023-05-25T00:55:32;102008.69;;;14.72;45.63
73566;BME280;61846;52.970;-3.168;2023-05-25T00:57:57;102011.82;;;15.03;45.73
73566;BME280;61846;52.970;-3.168;2023-05-25T01:00:21;102013.44;;;15.52;44.85
73566;BME280;61846;52.970;-3.168;2023-05-25T01:02:47;102012.21;;;15.50;44.41
73566;BME280;61846;52.970;-3.168;2023-05-25T01:05:13;102011.03;;;15.17;44.75
73566;BME280;61846;52.970;-3.168;2023-05-25T01:07:38;102017.91;;;14.94;45.18
73566;BME280;61846;52.970;-3.168;2023-05-25T01:10:05;102020.78;;;15.30;44.35
73566;BME280;61846;52.970;-3.168;2023-05-25T01:12:29;102021.19;;;15.03;44.74
73566;BME280;61846;52.970;-3.168;2023-05-25T01:14:54;102025.26;;;14.29;46.33
73566;BME280;61846;52.970;-3.168;2023-05-25T01:17:19;102023.25;;;13.96;48.38
73566;BME280;61846;52.970;-3.168;2023-05-25T01:19:44;102019.65;;;14.46;47.10
73566;BME280;61846;52.970;-3.168;2023-05-25T01:22:14;102017.99;;;15.07;46.09
73566;BME280;61846;52.970;-3.168;2023-05-25T01:24:38;102020.03;;;15.19;45.11
73566;BME280;61846;52.970;-3.168;2023-05-25T01:27:08;102018.29;;;14.65;46.12
73566;BME280;61846;52.970;-3.168;2023-05-25T01:29:27;102020.61;;;14.53;46.76
73566;BME280;61846;52.970;-3.168;2023-05-25T01:31:52;102019.37;;;14.66;46.26
73566;BME280;61846;52.970;-3.168;2023-05-25T01:34:18;102021.98;;;14.28;46.58
73566;BME280;61846;52.970;-3.168;2023-05-25T01:36:43;102023.26;;;14.83;45.81
73566;BME280;61846;52.970;-3.168;2023-05-25T01:39:08;102022.03;;;15.08;44.92
73566;BME280;61846;52.970;-3.168;2023-05-25T01:41:34;102018.53;;;15.04;45.17
73566;BME280;61846;52.970;-3.168;2023-05-25T01:44:00;102019.72;;;15.85;43.94
73566;BME280;61846;52.970;-3.168;2023-05-25T01:46:31;102023.79;;;15.37;44.28
73566;BME280;61846;52.970;-3.168;2023-05-25T01:48:53;102020.87;;;15.84;43.46
73566;BME280;61846;52.970;-3.168;2023-05-25T01:51:20;102018.83;;;15.83;43.46
73566;BME280;61846;52.970;-3.168;2023-05-25T01:53:44;102021.07;;;16.22;42.81
73566;BME280;61846;52.970;-3.168;2023-05-25T01:56:09;102023.63;;;15.97;42.76
73566;BME280;61846;52.970;-3.168;2023-05-25T01:58:37;102024.73;;;15.00;43.87
73566;BME280;61846;52.970;-3.168;2023-05-25T02:00:59;102018.32;;;16.17;42.89
73566;BME280;61846;52.970;-3.168;2023-05-25T02:03:24;102017.94;;;15.88;42.63
73566;BME280;61846;52.970;-3.168;2023-05-25T02:05:49;102017.57;;;16.26;42.31
73566;BME280;61846;52.970;-3.168;2023-05-25T02:08:14;102015.58;;;15.69;42.89
73566;BME280;61846;52.970;-3.168;2023-05-25T02:10:40;102014.61;;;15.85;42.45
73566;BME280;61846;52.970;-3.168;2023-05-25T02:13:06;102021.90;;;15.20;44.31
73566;BME280;61846;52.970;-3.168;2023-05-25T02:15:32;102025.01;;;15.23;44.14
73566;BME280;61846;52.970;-3.168;2023-05-25T02:17:56;102027.20;;;15.04;44.74
73566;BME280;61846;52.970;-3.168;2023-05-25T02:20:22;102027.70;;;15.59;43.77
73566;BME280;61846;52.970;-3.168;2023-05-25T02:22:47;102029.61;;;15.50;44.03
73566;BME280;61846;52.970;-3.168;2023-05-25T02:25:13;102029.91;;;14.86;45.90
73566;BME280;61846;52.970;-3.168;2023-05-25T02:27:38;102030.82;;;14.60;46.56
73566;BME280;61846;52.970;-3.168;2023-05-25T02:30:05;102028.07;;;14.92;45.62
73566;BME280;61846;52.970;-3.168;2023-05-25T02:32:29;102025.01;;;14.82;45.66
73566;BME280;61846;52.970;-3.168;2023-05-25T02:34:55;102024.71;;;14.79;45.22
73566;BME280;61846;52.970;-3.168;2023-05-25T02:37:20;102023.25;;;15.71;43.82
73566;BME280;61846;52.970;-3.168;2023-05-25T02:39:46;102025.21;;;15.81;43.52
73566;BME280;61846;52.970;-3.168;2023-05-25T02:42:11;102023.99;;;15.78;43.50
73566;BME280;61846;52.970;-3.168;2023-05-25T02:44:37;102022.08;;;16.15;42.75
73566;BME280;61846;52.970;-3.168;2023-05-25T02:47:03;102026.87;;;16.00;43.05
73566;BME280;61846;52.970;-3.168;2023-05-25T02:49:28;102027.79;;;15.63;44.06
73566;BME280;61846;52.970;-3.168;2023-05-25T02:51:53;102027.43;;;15.90;43.32
73566;BME280;61846;52.970;-3.168;2023-05-25T02:54:19;102029.61;;;15.55;43.84
73566;BME280;61846;52.970;-3.168;2023-05-25T02:56:45;102030.20;;;16.16;42.73
73566;BME280;61846;52.970;-3.168;2023-05-25T02:59:10;102032.67;;;15.60;43.49
73566;BME280;61846;52.970;-3.168;2023-05-25T03:01:36;102035.00;;;15.89;42.81
73566;BME280;61846;52.970;-3.168;2023-05-25T03:04:01;102031.58;;;16.32;42.37
73566;BME280;61846;52.970;-3.168;2023-05-25T03:06:26;102032.47;;;16.22;42.44
73566;BME280;61846;52.970;-3.168;2023-05-25T03:08:52;102037.58;;;15.91;42.43
73566;BME280;61846;52.970;-3.168;2023-05-25T03:11:17;102034.78;;;16.65;42.05
73566;BME280;61846;52.970;-3.168;2023-05-25T03:13:43;102037.75;;;15.78;42.82
73566;BME280;61846;52.970;-3.168;2023-05-25T03:16:08;102038.55;;;16.23;41.99
73566;BME280;61846;52.970;-3.168;2023-05-25T03:18:33;102041.88;;;15.90;42.99
73566;BME280;61846;52.970;-3.168;2023-05-25T03:20:59;102042.58;;;16.12;42.33
73566;BME280;61846;52.970;-3.168;2023-05-25T03:23:24;102042.18;;;15.96;42.78
73566;BME280;61846;52.970;-3.168;2023-05-25T03:25:50;102043.44;;;15.73;43.39
73566;BME280;61846;52.970;-3.168;2023-05-25T03:28:16;102040.57;;;15.88;43.01
73566;BME280;61846;52.970;-3.168;2023-05-25T03:30:41;102042.14;;;16.06;43.32
73566;BME280;61846;52.970;-3.168;2023-05-25T03:33:06;102038.91;;;16.39;42.31
73566;BME280;61846;52.970;-3.168;2023-05-25T03:35:32;102038.44;;;15.19;43.97
73566;BME280;61846;52.970;-3.168;2023-05-25T03:37:57;102040.28;;;14.85;45.06
73566;BME280;61846;52.970;-3.168;2023-05-25T03:40:23;102039.76;;;15.42;43.70
73566;BME280;61846;52.970;-3.168;2023-05-25T03:42:48;102038.80;;;15.54;43.75
73566;BME280;61846;52.970;-3.168;2023-05-25T03:45:14;102039.00;;;15.80;43.52
73566;BME280;61846;52.970;-3.168;2023-05-25T03:47:39;102040.44;;;15.91;43.27
73566;BME280;61846;52.970;-3.168;2023-05-25T03:50:06;102038.09;;;16.20;42.52
73566;BME280;61846;52.970;-3.168;2023-05-25T03:52:30;102037.48;;;15.77;42.85
73566;BME280;61846;52.970;-3.168;2023-05-25T03:54:56;102038.58;;;15.96;42.75
73566;BME280;61846;52.970;-3.168;2023-05-25T03:57:21;102039.47;;;15.71;43.09
73566;BME280;61846;52.970;-3.168;2023-05-25T03:59:47;102038.56;;;14.66;44.94
73566;BME280;61846;52.970;-3.168;2023-05-25T04:02:12;102045.60;;;14.59;45.60
73566;BME280;61846;52.970;-3.168;2023-05-25T04:04:38;102044.80;;;14.92;44.75
73566;BME280;61846;52.970;-3.168;2023-05-25T04:07:03;102050.53;;;13.91;45.79
73566;BME280;61846;52.970;-3.168;2023-05-25T04:09:29;102050.75;;;14.97;44.61
73566;BME280;61846;52.970;-3.168;2023-05-25T04:11:54;102053.48;;;15.06;44.50
73566;BME280;61846;52.970;-3.168;2023-05-25T04:14:19;102057.95;;;14.26;45.33
73566;BME280;61846;52.970;-3.168;2023-05-25T04:16:45;102055.42;;;14.77;44.59
73566;BME280;61846;52.970;-3.168;2023-05-25T04:19:11;102056.53;;;15.00;43.91
73566;BME280;61846;52.970;-3.168;2023-05-25T04:21:36;102062.93;;;14.62;44.69
73566;BME280;61846;52.970;-3.168;2023-05-25T04:24:02;102062.93;;;14.80;44.61
73566;BME280;61846;52.970;-3.168;2023-05-25T04:26:28;102060.25;;;15.01;44.08
73566;BME280;61846;52.970;-3.168;2023-05-25T04:28:53;102065.51;;;14.86;43.91
73566;BME280;61846;52.970;-3.168;2023-05-25T04:31:18;102071.02;;;14.53;44.98
73566;BME280;61846;52.970;-3.168;2023-05-25T04:33:44;102070.40;;;14.24;44.60
73566;BME280;61846;52.970;-3.168;2023-05-25T04:36:09;102068.11;;;13.71;46.23
73566;BME280;61846;52.970;-3.168;2023-05-25T04:38:35;102068.56;;;14.19;45.24
73566;BME280;61846;52.970;-3.168;2023-05-25T04:41:00;102071.28;;;14.08;45.33
73566;BME280;61846;52.970;-3.168;2023-05-25T04:43:26;102068.63;;;14.25;44.86
73566;BME280;61846;52.970;-3.168;2023-05-25T04:45:51;102073.54;;;13.70;45.72
73566;BME280;61846;52.970;-3.168;2023-05-25T04:48:17;102076.73;;;13.69;45.51
73566;BME280;61846;52.970;-3.168;2023-05-25T04:50:42;102076.55;;;14.28;44.39
73566;BME280;61846;52.970;-3.168;2023-05-25T04:53:08;102078.75;;;14.22;44.48
73566;BME280;61846;52.970;-3.168;2023-05-25T04:55:33;102081.83;;;14.53;44.24
73566;BME280;61846;52.970;-3.168;2023-05-25T04:57:59;102087.95;;;14.68;43.31
73566;BME280;61846;52.970;-3.168;2023-05-25T05:00:25;102095.10;;;14.45;43.59
73566;BME280;61846;52.970;-3.168;2023-05-25T05:02:50;102097.65;;;14.23;44.26
73566;BME280;61846;52.970;-3.168;2023-05-25T05:05:16;102100.29;;;13.55;45.54
73566;BME280;61846;52.970;-3.168;2023-05-25T05:07:41;102104.28;;;13.15;47.24
73566;BME280;61846;52.970;-3.168;2023-05-25T05:10:07;102101.21;;;12.90;48.01
73566;BME280;61846;52.970;-3.168;2023-05-25T05:12:32;102098.21;;;13.65;46.76
73566;BME280;61846;52.970;-3.168;2023-05-25T05:14:57;102101.27;;;13.86;46.00
73566;BME280;61846;52.970;-3.168;2023-05-25T05:17:23;102101.90;;;12.80;47.81
73566;BME280;61846;52.970;-3.168;2023-05-25T05:19:48;102103.06;;;13.69;46.50
73566;BME280;61846;52.970;-3.168;2023-05-25T05:22:13;102103.40;;;13.67;46.73
73566;BME280;61846;52.970;-3.168;2023-05-25T05:24:39;102103.01;;;14.33;45.59
73566;BME280;61846;52.970;-3.168;2023-05-25T05:27:05;102103.10;;;13.96;45.63
73566;BME280;61846;52.970;-3.168;2023-05-25T05:29:30;102104.32;;;13.12;47.32
73566;BME280;61846;52.970;-3.168;2023-05-25T05:31:55;102107.51;;;13.86;46.39
73566;BME280;61846;52.970;-3.168;2023-05-25T05:34:21;102108.49;;;14.07;45.49
73566;BME280;61846;52.970;-3.168;2023-05-25T05:36:46;102108.52;;;14.47;44.78
73566;BME280;61846;52.970;-3.168;2023-05-25T05:39:12;102111.88;;;14.54;44.69
73566;BME280;61846;52.970;-3.168;2023-05-25T05:41:37;102115.23;;;14.63;44.10
73566;BME280;61846;52.970;-3.168;2023-05-25T05:44:02;102117.12;;;14.83;44.23
73566;BME280;61846;52.970;-3.168;2023-05-25T05:46:28;102116.70;;;14.58;44.03
73566;BME280;61846;52.970;-3.168;2023-05-25T05:48:53;102114.79;;;14.78;43.16
73566;BME280;61846;52.970;-3.168;2023-05-25T05:51:19;102122.72;;;14.68;43.34
73566;BME280;61846;52.970;-3.168;2023-05-25T05:53:44;102123.37;;;14.60;42.88
73566;BME280;61846;52.970;-3.168;2023-05-25T05:56:16;102130.58;;;14.25;44.45
73566;BME280;61846;52.970;-3.168;2023-05-25T05:58:35;102130.87;;;14.57;44.13
73566;BME280;61846;52.970;-3.168;2023-05-25T06:01:00;102133.76;;;14.08;44.63
73566;BME280;61846;52.970;-3.168;2023-05-25T06:03:25;102132.17;;;13.88;45.40
73566;BME280;61846;52.970;-3.168;2023-05-25T06:05:51;102132.43;;;13.32;47.43
73566;BME280;61846;52.970;-3.168;2023-05-25T06:08:16;102131.06;;;13.89;45.67
73566;BME280;61846;52.970;-3.168;2023-05-25T06:10:42;102129.67;;;14.44;45.10
73566;BME280;61846;52.970;-3.168;2023-05-25T06:13:07;102128.80;;;14.21;45.07
73566;BME280;61846;52.970;-3.168;2023-05-25T06:15:33;102130.23;;;14.16;45.24
73566;BME280;61846;52.970;-3.168;2023-05-25T06:17:58;102132.96;;;13.99;46.22
73566;BME280;61846;52.970;-3.168;2023-05-25T06:20:24;102129.97;;;14.39;45.49
73566;BME280;61846;52.970;-3.168;2023-05-25T06:22:49;102126.96;;;14.70;45.38
73566;BME280;61846;52.970;-3.168;2023-05-25T06:25:15;102128.98;;;15.16;44.37
73566;BME280;61846;52.970;-3.168;2023-05-25T06:27:40;102128.55;;;14.80;45.14
73566;BME280;61846;52.970;-3.168;2023-05-25T06:30:07;102131.62;;;15.00;44.29
73566;BME280;61846;52.970;-3.168;2023-05-25T06:32:31;102132.47;;;14.89;44.17
73566;BME280;61846;52.970;-3.168;2023-05-25T06:34:57;102136.35;;;15.49;43.05
73566;BME280;61846;52.970;-3.168;2023-05-25T06:37:22;102138.40;;;15.29;43.37
73566;BME280;61846;52.970;-3.168;2023-05-25T06:39:48;102143.62;;;15.53;43.13
73566;BME280;61846;52.970;-3.168;2023-05-25T06:42:13;102147.00;;;15.23;43.75
73566;BME280;61846;52.970;-3.168;2023-05-25T06:44:39;102142.61;;;15.35;44.28
73566;BME280;61846;52.970;-3.168;2023-05-25T06:47:04;102144.50;;;15.03;43.57
73566;BME280;61846;52.970;-3.168;2023-05-25T06:49:29;102145.31;;;14.97;44.62
73566;BME280;61846;52.970;-3.168;2023-05-25T06:51:55;102139.40;;;15.25;44.02
73566;BME280;61846;52.970;-3.168;2023-05-25T06:54:20;102138.45;;;15.86;43.51
73566;BME280;61846;52.970;-3.168;2023-05-25T06:56:45;102143.85;;;16.42;42.24
73566;BME280;61846;52.970;-3.168;2023-05-25T06:59:11;102146.73;;;15.25;44.63
73566;BME280;61846;52.970;-3.168;2023-05-25T07:01:36;102151.44;;;15.39;44.50
73566;BME280;61846;52.970;-3.168;2023-05-25T07:04:02;102150.09;;;15.98;43.14
73566;BME280;61846;52.970;-3.168;2023-05-25T07:06:28;102147.53;;;15.64;43.90
73566;BME280;61846;52.970;-3.168;2023-05-25T07:08:53;102151.68;;;15.42;45.05
73566;BME280;61846;52.970;-3.168;2023-05-25T07:11:18;102154.14;;;16.30;43.80
73566;BME280;61846;52.970;-3.168;2023-05-25T07:13:44;102152.98;;;15.63;43.56
73566;BME280;61846;52.970;-3.168;2023-05-25T07:16:09;102157.94;;;16.22;42.80
73566;BME280;61846;52.970;-3.168;2023-05-25T07:18:38;102155.38;;;16.15;43.54
73566;BME280;61846;52.970;-3.168;2023-05-25T07:21:00;102154.83;;;15.67;44.21
73566;BME280;61846;52.970;-3.168;2023-05-25T07:23:26;102151.99;;;14.91;46.30
73566;BME280;61846;52.970;-3.168;2023-05-25T07:25:51;102150.88;;;15.22;46.27
73566;BME280;61846;52.970;-3.168;2023-05-25T07:28:16;102148.95;;;16.03;44.89
73566;BME280;61846;52.970;-3.168;2023-05-25T07:30:42;102147.36;;;16.18;43.81
73566;BME280;61846;52.970;-3.168;2023-05-25T07:33:07;102144.89;;;15.59;44.67
73566;BME280;61846;52.970;-3.168;2023-05-25T07:35:33;102145.40;;;15.05;45.91
73566;BME280;61846;52.970;-3.168;2023-05-25T07:37:59;102143.85;;;15.88;45.05
73566;BME280;61846;52.970;-3.168;2023-05-25T07:40:24;102146.41;;;16.20;44.65
73566;BME280;61846;52.970;-3.168;2023-05-25T07:42:49;102146.29;;;16.07;43.74
73566;BME280;61846;52.970;-3.168;2023-05-25T07:45:15;102149.42;;;16.17;43.04
73566;BME280;61846;52.970;-3.168;2023-05-25T07:47:40;102148.40;;;15.86;43.86
73566;BME280;61846;52.970;-3.168;2023-05-25T07:50:06;102145.80;;;15.90;45.00
73566;BME280;61846;52.970;-3.168;2023-05-25T07:52:31;102145.64;;;15.78;44.40
73566;BME280;61846;52.970;-3.168;2023-05-25T07:54:56;102140.14;;;16.11;43.25
73566;BME280;61846;52.970;-3.168;2023-05-25T07:57:22;102141.31;;;16.59;43.79
73566;BME280;61846;52.970;-3.168;2023-05-25T07:59:47;102141.82;;;16.54;43.26
73566;BME280;61846;52.970;-3.168;2023-05-25T08:02:13;102146.60;;;17.11;42.79
73566;BME280;61846;52.970;-3.168;2023-05-25T08:04:38;102149.78;;;17.01;42.71
73566;BME280;61846;52.970;-3.168;2023-05-25T08:07:03;102149.00;;;17.95;41.19
73566;BME280;61846;52.970;-3.168;2023-05-25T08:09:29;102151.66;;;17.26;41.64
73566;BME280;61846;52.970;-3.168;2023-05-25T08:11:54;102151.70;;;17.82;40.94
73566;BME280;61846;52.970;-3.168;2023-05-25T08:14:19;102152.88;;;17.46;40.74
73566;BME280;61846;52.970;-3.168;2023-05-25T08:16:44;102154.38;;;17.54;39.62
73566;BME280;61846;52.970;-3.168;2023-05-25T08:19:10;102159.31;;;17.17;42.49
73566;BME280;61846;52.970;-3.168;2023-05-25T08:21:35;102162.73;;;16.79;41.71
73566;BME280;61846;52.970;-3.168;2023-05-25T08:24:00;102162.42;;;17.64;41.43
73566;BME280;61846;52.970;-3.168;2023-05-25T08:26:26;102162.69;;;17.70;42.28
73566;BME280;61846;52.970;-3.168;2023-05-25T08:28:51;102161.87;;;17.77;41.54
73566;BME280;61846;52.970;-3.168;2023-05-25T08:31:16;102159.41;;;18.15;40.69
73566;BME280;61846;52.970;-3.168;2023-05-25T08:33:41;102157.68;;;18.37;39.50
73566;BME280;61846;52.970;-3.168;2023-05-25T08:36:07;102156.68;;;18.64;40.33
73566;BME280;61846;52.970;-3.168;2023-05-25T08:38:32;102152.80;;;19.37;38.80
73566;BME280;61846;52.970;-3.168;2023-05-25T08:41:02;102151.70;;;18.94;38.65
73566;BME280;61846;52.970;-3.168;2023-05-25T08:43:23;102147.49;;;19.02;38.94
73566;BME280;61846;52.970;-3.168;2023-05-25T08:45:48;102153.05;;;19.31;39.86
73566;BME280;61846;52.970;-3.168;2023-05-25T08:48:14;102153.64;;;19.56;37.55
73566;BME280;61846;52.970;-3.168;2023-05-25T08:50:40;102152.50;;;19.53;38.84
73566;BME280;61846;52.970;-3.168;2023-05-25T08:53:07;102157.78;;;19.21;39.89
73566;BME280;61846;52.970;-3.168;2023-05-25T08:55:32;102154.53;;;20.12;37.76
73566;BME280;61846;52.970;-3.168;2023-05-25T08:57:58;102154.61;;;20.65;37.25
73566;BME280;61846;52.970;-3.168;2023-05-25T09:00:24;102151.15;;;20.87;34.60
73566;BME280;61846;52.970;-3.168;2023-05-25T09:02:50;102147.67;;;20.76;37.83
73566;BME280;61846;52.970;-3.168;2023-05-25T09:05:12;102149.65;;;20.76;35.84
73566;BME280;61846;52.970;-3.168;2023-05-25T09:07:37;102149.61;;;19.98;37.73
73566;BME280;61846;52.970;-3.168;2023-05-25T09:10:02;102152.59;;;21.07;36.75
73566;BME280;61846;52.970;-3.168;2023-05-25T09:12:29;102151.99;;;21.01;37.04
73566;BME280;61846;52.970;-3.168;2023-05-25T09:14:53;102151.92;;;20.55;36.44
73566;BME280;61846;52.970;-3.168;2023-05-25T09:17:18;102151.16;;;21.28;34.93
73566;BME280;61846;52.970;-3.168;2023-05-25T09:19:44;102153.55;;;21.44;34.14
73566;BME280;61846;52.970;-3.168;2023-05-25T09:22:09;102148.96;;;21.36;34.71
73566;BME280;61846;52.970;-3.168;2023-05-25T09:24:34;102145.20;;;21.34;35.91
73566;BME280;61846;52.970;-3.168;2023-05-25T09:26:59;102144.25;;;21.17;35.60
73566;BME280;61846;52.970;-3.168;2023-05-25T09:29:25;102144.33;;;21.13;36.33
73566;BME280;61846;52.970;-3.168;2023-05-25T09:31:50;102142.85;;;21.32;35.23
73566;BME280;61846;52.970;-3.168;2023-05-25T09:34:15;102140.56;;;21.51;35.66
73566;BME280;61846;52.970;-3.168;2023-05-25T09:36:40;102141.04;;;22.58;32.59
73566;BME280;61846;52.970;-3.168;2023-05-25T09:39:08;102139.08;;;21.92;33.65
73566;BME280;61846;52.970;-3.168;2023-05-25T09:41:32;102140.13;;;20.98;35.07
73566;BME280;61846;52.970;-3.168;2023-05-25T09:43:56;102140.96;;;21.52;33.36
73566;BME280;61846;52.970;-3.168;2023-05-25T09:46:22;102139.76;;;21.71;33.60
73566;BME280;61846;52.970;-3.168;2023-05-25T09:48:47;102141.74;;;21.56;35.12
73566;BME280;61846;52.970;-3.168;2023-05-25T09:51:13;102144.85;;;21.06;33.61
73566;BME280;61846;52.970;-3.168;2023-05-25T09:53:38;102143.29;;;21.95;32.82
73566;BME280;61846;52.970;-3.168;2023-05-25T09:56:04;102140.59;;;22.31;32.16
73566;BME280;61846;52.970;-3.168;2023-05-25T09:58:29;102143.52;;;22.44;33.06
73566;BME280;61846;52.970;-3.168;2023-05-25T10:00:54;102142.58;;;22.26;33.95
73566;BME280;61846;52.970;-3.168;2023-05-25T10:03:19;102140.93;;;20.87;36.12
73566;BME280;61846;52.970;-3.168;2023-05-25T10:05:45;102141.25;;;20.80;35.39
73566;BME280;61846;52.970;-3.168;2023-05-25T10:08:10;102140.98;;;23.04;33.11
73566;BME280;61846;52.970;-3.168;2023-05-25T10:10:37;102144.22;;;23.22;31.54
73566;BME280;61846;52.970;-3.168;2023-05-25T10:13:02;102147.43;;;22.84;31.02
73566;BME280;61846;52.970;-3.168;2023-05-25T10:15:27;102145.48;;;24.02;29.85
73566;BME280;61846;52.970;-3.168;2023-05-25T10:17:53;102147.28;;;22.63;33.52
73566;BME280;61846;52.970;-3.168;2023-05-25T10:20:18;102142.31;;;23.55;31.18
73566;BME280;61846;52.970;-3.168;2023-05-25T10:22:47;102145.62;;;24.05;29.73
73566;BME280;61846;52.970;-3.168;2023-05-25T10:25:12;102146.89;;;23.53;30.14
73566;BME280;61846;52.970;-3.168;2023-05-25T10:27:38;102145.70;;;22.09;31.86
73566;BME280;61846;52.970;-3.168;2023-05-25T10:29:59;102145.27;;;22.49;31.93
73566;BME280;61846;52.970;-3.168;2023-05-25T10:32:24;102148.06;;;22.51;31.30
73566;BME280;61846;52.970;-3.168;2023-05-25T10:34:51;102148.75;;;23.75;29.53
73566;BME280;61846;52.970;-3.168;2023-05-25T10:37:16;102149.70;;;23.12;30.38
73566;BME280;61846;52.970;-3.168;2023-05-25T10:39:41;102151.30;;;23.81;29.32
73566;BME280;61846;52.970;-3.168;2023-05-25T10:42:06;102148.31;;;23.86;30.08
73566;BME280;61846;52.970;-3.168;2023-05-25T10:44:31;102148.42;;;24.36;29.17
73566;BME280;61846;52.970;-3.168;2023-05-25T10:46:58;102148.33;;;24.08;30.64
73566;BME280;61846;52.970;-3.168;2023-05-25T10:49:29;102148.41;;;22.85;30.72
73566;BME280;61846;52.970;-3.168;2023-05-25T10:51:56;102148.09;;;24.29;29.48
73566;BME280;61846;52.970;-3.168;2023-05-25T10:54:14;102145.15;;;24.65;29.61
73566;BME280;61846;52.970;-3.168;2023-05-25T10:59:04;102141.15;;;23.95;30.00
73566;BME280;61846;52.970;-3.168;2023-05-25T11:01:30;102140.50;;;24.14;29.70
73566;BME280;61846;52.970;-3.168;2023-05-25T11:03:56;102141.02;;;24.10;29.98
73566;BME280;61846;52.970;-3.168;2023-05-25T11:06:21;102138.28;;;24.11;31.38
73566;BME280;61846;52.970;-3.168;2023-05-25T11:08:48;102137.10;;;23.61;30.68
73566;BME280;61846;52.970;-3.168;2023-05-25T11:11:11;102140.58;;;23.60;30.36
73566;BME280;61846;52.970;-3.168;2023-05-25T11:13:36;102142.26;;;24.45;30.30
73566;BME280;61846;52.970;-3.168;2023-05-25T11:18:35;102141.32;;;23.67;31.45
73566;BME280;61846;52.970;-3.168;2023-05-25T11:23:23;102134.66;;;24.98;30.89
73566;BME280;61846;52.970;-3.168;2023-05-25T11:25:43;102134.35;;;25.30;29.53
73566;BME280;61846;52.970;-3.168;2023-05-25T11:28:09;102136.19;;;25.18;29.81
73566;BME280;61846;52.970;-3.168;2023-05-25T11:30:34;102140.25;;;24.24;30.78
73566;BME280;61846;52.970;-3.168;2023-05-25T11:33:01;102132.91;;;25.37;28.80
73566;BME280;61846;52.970;-3.168;2023-05-25T11:35:25;102137.56;;;25.47;27.82
73566;BME280;61846;52.970;-3.168;2023-05-25T11:37:50;102142.10;;;25.53;28.21
73566;BME280;61846;52.970;-3.168;2023-05-25T11:40:15;102137.08;;;24.67;28.90
73566;BME280;61846;52.970;-3.168;2023-05-25T11:42:45;102133.12;;;24.73;29.76
73566;BME280;61846;52.970;-3.168;2023-05-25T11:45:10;102132.64;;;24.37;30.00
73566;BME280;61846;52.970;-3.168;2023-05-25T11:47:32;102132.17;;;25.10;28.56
73566;BME280;61846;52.970;-3.168;2023-05-25T11:49:57;102125.37;;;25.72;28.95
73566;BME280;61846;52.970;-3.168;2023-05-25T11:52:22;102126.81;;;26.04;27.92
73566;BME280;61846;52.970;-3.168;2023-05-25T11:54:47;102125.18;;;24.26;29.38
73566;BME280;61846;52.970;-3.168;2023-05-25T11:57:14;102125.97;;;25.21;28.62
73566;BME280;61846;52.970;-3.168;2023-05-25T11:59:37;102128.54;;;25.54;28.26
73566;BME280;61846;52.970;-3.168;2023-05-25T12:02:03;102127.83;;;25.07;29.04
73566;BME280;61846;52.970;-3.168;2023-05-25T12:04:30;102126.14;;;25.38;29.07
73566;BME280;61846;52.970;-3.168;2023-05-25T12:07:02;102125.94;;;25.12;27.84
73566;BME280;61846;52.970;-3.168;2023-05-25T12:09:20;102128.17;;;25.23;28.89
73566;BME280;61846;52.970;-3.168;2023-05-25T12:11:45;102127.49;;;24.58;30.05
73566;BME280;61846;52.970;-3.168;2023-05-25T12:14:10;102121.69;;;25.25;29.75
73566;BME280;61846;52.970;-3.168;2023-05-25T12:16:36;102123.98;;;24.57;29.02
73566;BME280;61846;52.970;-3.168;2023-05-25T12:19:01;102124.31;;;23.37;30.08
73566;BME280;61846;52.970;-3.168;2023-05-25T12:21:26;102125.15;;;25.07;28.29
73566;BME280;61846;52.970;-3.168;2023-05-25T12:23:53;102120.10;;;24.51;29.55
73566;BME280;61846;52.970;-3.168;2023-05-25T12:26:17;102127.20;;;24.87;30.65
73566;BME280;61846;52.970;-3.168;2023-05-25T12:31:20;102130.03;;;24.21;30.54
73566;BME280;61846;52.970;-3.168;2023-05-25T12:33:33;102127.80;;;25.01;28.72
73566;BME280;61846;52.970;-3.168;2023-05-25T12:35:57;102125.69;;;24.94;28.46
73566;BME280;61846;52.970;-3.168;2023-05-25T12:38:23;102126.94;;;25.06;28.40
73566;BME280;61846;52.970;-3.168;2023-05-25T12:43:13;102117.81;;;25.60;28.81